Antonios — SY8410 — position and weather

sailwx.info

Track history (hours):
 
Tides and Currents Weather Stations Pressure Air Temp Water Temp Dewpoint Dewpoint Depression Visibility Wind Speed Wind Dir Waves Ship Positions

Antonios

Last reported at 2014-Oct-02 00:33 UTC. Time now 2014-Oct-02 00:37 UTC.
Position N 36°36' E 024°52'.

Length 57 m; draft 2.9 m.

Type: Tanker. MMSI: 239191300.

Date/timePositionNaut miles runAvg speedWind from/ knotsBaromVisibWave heightAir tempDewpointWater temp
2014-Oct-02 00:33N 36°36' E 024°52'1010.1
2014-Oct-01 23:33N 36°45' E 024°45'9 9.1
2014-Oct-01 22:33N 36°52' E 024°38'10 9.6
2014-Oct-01 21:33N 36°58' E 024°29'11 9.9
2014-Oct-01 20:28N 37°06' E 024°20'32 9.7
2014-Oct-01 17:08N 37°26' E 023°48'8 9.4
2014-Oct-01 16:19N 37°31' E 023°40'8 9.5
2014-Oct-01 15:32N 37°36' E 023°33'10 9.7
2014-Oct-01 14:33N 37°40' E 023°22'9 9.5
2014-Oct-01 13:33N 37°47' E 023°14'1010.0
2014-Oct-01 12:33N 37°54' E 023°06'1 0.8
2014-Oct-01 11:27N 37°55' E 023°05'0 0.0
2014-Oct-01 10:33N 37°55' E 023°05'0 0.0
2014-Oct-01 09:33N 37°55' E 023°05'0 0.0
2014-Oct-01 06:33N 37°55' E 023°05'1 0.9
2014-Oct-01 05:33N 37°54' E 023°04'0 0.0
2014-Oct-01 04:33N 37°55' E 023°04'2 1.5
2014-Oct-01 03:32N 37°54' E 023°06'1010.1
2014-Oct-01 02:33N 37°46' E 023°14'10 9.8
2014-Oct-01 01:33N 37°39' E 023°23'1010.0
2014-Oct-01 00:33N 37°35' E 023°34'29 9.8
2014-Sep-30 21:33N 37°14' E 024°01'20 9.9
2014-Sep-30 19:32N 37°04' E 024°23'1010.3
2014-Sep-30 18:33N 36°59' E 024°33'1010.2
2014-Sep-30 17:33N 36°53' E 024°44'1010.1
2014-Sep-30 16:33N 36°56' E 024°56'9 9.3
2014-Sep-30 15:33N 36°53' E 025°06'10 9.7
2014-Sep-30 14:33N 36°49' E 025°17'9 9.3
2014-Sep-30 13:33N 36°48' E 025°29'1010.3
2014-Sep-30 12:33N 36°47' E 025°42'8 8.3
2014-Sep-30 11:33N 36°46' E 025°52'1210.4
2014-Sep-30 10:24N 36°53' E 026°04'6 7.2
2014-Sep-30 09:31N 36°55' E 026°12'  
2014-Sep-24 15:20N 36°47' E 026°28'810.1
2014-Sep-24 14:33N 36°44' E 026°19'10 9.7
2014-Sep-24 13:33N 36°41' E 026°08'1010.1
2014-Sep-24 12:33N 36°39' E 025°55'10 9.8
2014-Sep-24 11:33N 36°35' E 025°44'9 8.9
2014-Sep-24 10:33N 36°33' E 025°33'9 9.0
2014-Sep-24 09:33N 36°30' E 025°23'7 6.8
2014-Sep-24 08:33N 36°23' E 025°26'0 0.0
2014-Sep-24 07:33N 36°23' E 025°26'0 0.0
2014-Sep-24 06:33N 36°23' E 025°26'0 0.0
2014-Sep-24 05:33N 36°23' E 025°26'0 0.0
2014-Sep-24 04:33N 36°23' E 025°26'0 0.0
2014-Sep-24 03:33N 36°23' E 025°26'0 0.0
2014-Sep-24 02:33N 36°23' E 025°26'0 0.0
2014-Sep-24 01:33N 36°23' E 025°26'0 0.0
2014-Sep-24 00:33N 36°23' E 025°26'0 0.0
2014-Sep-23 23:33N 36°23' E 025°26'0 0.0
2014-Sep-23 22:33N 36°23' E 025°26'1 1.3
2014-Sep-23 21:33N 36°24' E 025°25'8 7.8
2014-Sep-23 20:33N 36°32' E 025°23'10 9.9
2014-Sep-23 19:33N 36°42' E 025°25'1010.5
2014-Sep-23 18:33N 36°52' E 025°21'1010.2
2014-Sep-23 17:33N 37°02' E 025°18'6 5.8
2014-Sep-23 16:33N 37°06' E 025°22'1 0.6
2014-Sep-23 15:33N 37°07' E 025°22'1 0.6
2014-Sep-23 14:33N 37°06' E 025°22'0 0.0
2014-Sep-23 13:33N 37°06' E 025°22'0 0.0
2014-Sep-23 12:33N 37°06' E 025°22'0 0.0
2014-Sep-23 11:33N 37°06' E 025°22'8 8.3
2014-Sep-23 10:33N 37°12' E 025°14'9 9.4
2014-Sep-23 09:33N 37°16' E 025°04'10 9.9
2014-Sep-23 08:33N 37°20' E 024°53'1010.0
2014-Sep-23 07:33N 37°24' E 024°41'10 9.6
2014-Sep-23 06:33N 37°29' E 024°30'11 9.9
2014-Sep-23 05:29N 37°30' E 024°17'910.2
2014-Sep-23 04:33N 37°33' E 024°06'1210.3
2014-Sep-23 03:22N 37°37' E 023°51'8 9.7
2014-Sep-23 02:33N 37°41' E 023°42'1010.0
2014-Sep-23 01:33N 37°49' E 023°35'1010.4
2014-Sep-23 00:33N 37°51' E 023°23'1210.5
2014-Sep-22 23:28N 37°54' E 023°08'3 0.7
2014-Sep-22 19:32N 37°55' E 023°05'0 0.1
2014-Sep-22 13:31N 37°55' E 023°05'1 0.6
2014-Sep-22 12:32N 37°55' E 023°05'0 0.0
2014-Sep-22 10:22N 37°55' E 023°05'4 5.1
2014-Sep-22 09:33N 37°54' E 023°10'1010.3
2014-Sep-22 08:33N 37°51' E 023°22'1110.7
2014-Sep-22 07:33N 37°51' E 023°36'10 9.6
2014-Sep-22 06:33N 37°43' E 023°43'1110.3
2014-Sep-22 05:31N 37°37' E 023°54'1010.4
2014-Sep-22 04:33N 37°33' E 024°06'1410.4
2014-Sep-22 03:12N 37°30' E 024°24'710.6
2014-Sep-22 02:33N 37°28' E 024°32'1110.8
2014-Sep-22 01:33N 37°23' E 024°44'1110.5
2014-Sep-22 00:33N 37°19' E 024°56'1110.7
2014-Sep-21 23:33N 37°17' E 025°09'  
Track history (hours):
 
Tides and Currents Weather Stations Pressure Air Temp Water Temp Dewpoint Dewpoint Depression Visibility Wind Speed Wind Dir Waves Ship Positions

Antonios

Last reported at 2014-Oct-02 00:33 UTC. Time now 2014-Oct-02 00:37 UTC.
Position N 36°36' E 024°52'.

Length 57 m; draft 2.9 m.

Type: Tanker. MMSI: 239191300.

Date/timePositionNaut miles runAvg speedWind from/ knotsBaromVisibWave heightAir tempDewpointWater temp
2014-Oct-02 00:33N 36°36' E 024°52'1010.1
2014-Oct-01 23:33N 36°45' E 024°45'9 9.1
2014-Oct-01 22:33N 36°52' E 024°38'10 9.6
2014-Oct-01 21:33N 36°58' E 024°29'11 9.9
2014-Oct-01 20:28N 37°06' E 024°20'32 9.7
2014-Oct-01 17:08N 37°26' E 023°48'8 9.4
2014-Oct-01 16:19N 37°31' E 023°40'8 9.5
2014-Oct-01 15:32N 37°36' E 023°33'10 9.7
2014-Oct-01 14:33N 37°40' E 023°22'9 9.5
2014-Oct-01 13:33N 37°47' E 023°14'1010.0
2014-Oct-01 12:33N 37°54' E 023°06'1 0.8
2014-Oct-01 11:27N 37°55' E 023°05'0 0.0
2014-Oct-01 10:33N 37°55' E 023°05'0 0.0
2014-Oct-01 09:33N 37°55' E 023°05'0 0.0
2014-Oct-01 06:33N 37°55' E 023°05'1 0.9
2014-Oct-01 05:33N 37°54' E 023°04'0 0.0
2014-Oct-01 04:33N 37°55' E 023°04'2 1.5
2014-Oct-01 03:32N 37°54' E 023°06'1010.1
2014-Oct-01 02:33N 37°46' E 023°14'10 9.8
2014-Oct-01 01:33N 37°39' E 023°23'1010.0
2014-Oct-01 00:33N 37°35' E 023°34'29 9.8
2014-Sep-30 21:33N 37°14' E 024°01'20 9.9
2014-Sep-30 19:32N 37°04' E 024°23'1010.3
2014-Sep-30 18:33N 36°59' E 024°33'1010.2
2014-Sep-30 17:33N 36°53' E 024°44'1010.1
2014-Sep-30 16:33N 36°56' E 024°56'9 9.3
2014-Sep-30 15:33N 36°53' E 025°06'10 9.7
2014-Sep-30 14:33N 36°49' E 025°17'9 9.3
2014-Sep-30 13:33N 36°48' E 025°29'1010.3
2014-Sep-30 12:33N 36°47' E 025°42'8 8.3
2014-Sep-30 11:33N 36°46' E 025°52'1210.4
2014-Sep-30 10:24N 36°53' E 026°04'6 7.2
2014-Sep-30 09:31N 36°55' E 026°12'  
2014-Sep-24 15:20N 36°47' E 026°28'810.1
2014-Sep-24 14:33N 36°44' E 026°19'10 9.7
2014-Sep-24 13:33N 36°41' E 026°08'1010.1
2014-Sep-24 12:33N 36°39' E 025°55'10 9.8
2014-Sep-24 11:33N 36°35' E 025°44'9 8.9
2014-Sep-24 10:33N 36°33' E 025°33'9 9.0
2014-Sep-24 09:33N 36°30' E 025°23'7 6.8
2014-Sep-24 08:33N 36°23' E 025°26'0 0.0
2014-Sep-24 07:33N 36°23' E 025°26'0 0.0
2014-Sep-24 06:33N 36°23' E 025°26'0 0.0
2014-Sep-24 05:33N 36°23' E 025°26'0 0.0
2014-Sep-24 04:33N 36°23' E 025°26'0 0.0
2014-Sep-24 03:33N 36°23' E 025°26'0 0.0
2014-Sep-24 02:33N 36°23' E 025°26'0 0.0
2014-Sep-24 01:33N 36°23' E 025°26'0 0.0
2014-Sep-24 00:33N 36°23' E 025°26'0 0.0
2014-Sep-23 23:33N 36°23' E 025°26'0 0.0
2014-Sep-23 22:33N 36°23' E 025°26'1 1.3
2014-Sep-23 21:33N 36°24' E 025°25'8 7.8
2014-Sep-23 20:33N 36°32' E 025°23'10 9.9
2014-Sep-23 19:33N 36°42' E 025°25'1010.5
2014-Sep-23 18:33N 36°52' E 025°21'1010.2
2014-Sep-23 17:33N 37°02' E 025°18'6 5.8
2014-Sep-23 16:33N 37°06' E 025°22'1 0.6
2014-Sep-23 15:33N 37°07' E 025°22'1 0.6
2014-Sep-23 14:33N 37°06' E 025°22'0 0.0
2014-Sep-23 13:33N 37°06' E 025°22'0 0.0
2014-Sep-23 12:33N 37°06' E 025°22'0 0.0
2014-Sep-23 11:33N 37°06' E 025°22'8 8.3
2014-Sep-23 10:33N 37°12' E 025°14'9 9.4
2014-Sep-23 09:33N 37°16' E 025°04'10 9.9
2014-Sep-23 08:33N 37°20' E 024°53'1010.0
2014-Sep-23 07:33N 37°24' E 024°41'10 9.6
2014-Sep-23 06:33N 37°29' E 024°30'11 9.9
2014-Sep-23 05:29N 37°30' E 024°17'910.2
2014-Sep-23 04:33N 37°33' E 024°06'1210.3
2014-Sep-23 03:22N 37°37' E 023°51'8 9.7
2014-Sep-23 02:33N 37°41' E 023°42'1010.0
2014-Sep-23 01:33N 37°49' E 023°35'1010.4
2014-Sep-23 00:33N 37°51' E 023°23'1210.5
2014-Sep-22 23:28N 37°54' E 023°08'3 0.7
2014-Sep-22 19:32N 37°55' E 023°05'0 0.1
2014-Sep-22 13:31N 37°55' E 023°05'1 0.6
2014-Sep-22 12:32N 37°55' E 023°05'0 0.0
2014-Sep-22 10:22N 37°55' E 023°05'4 5.1
2014-Sep-22 09:33N 37°54' E 023°10'1010.3
2014-Sep-22 08:33N 37°51' E 023°22'1110.7
2014-Sep-22 07:33N 37°51' E 023°36'10 9.6
2014-Sep-22 06:33N 37°43' E 023°43'1110.3
2014-Sep-22 05:31N 37°37' E 023°54'1010.4
2014-Sep-22 04:33N 37°33' E 024°06'1410.4
2014-Sep-22 03:12N 37°30' E 024°24'710.6
2014-Sep-22 02:33N 37°28' E 024°32'1110.8
2014-Sep-22 01:33N 37°23' E 024°44'1110.5
2014-Sep-22 00:33N 37°19' E 024°56'1110.7
2014-Sep-21 23:33N 37°17' E 025°09'  

Dump ship's entire track history